Brookside Village, Texas
Current Conditions -  °F | °C
As of 3:53 AM on Sunday 21 Dec 2014 (Local Time) from KLVJ Reporting Station
Overcast Overcast  
Wind Chill: 51°   Ceiling: 2300
Heat Index: 51°   Visibility: 10mi
Dew Point: 47°   Wind: 10mph
Humidity: 86%   Direction: 60°ENE
Pressure: 30.14"   Gusts: NA
Location:  29.5651°N, 95.2786°W
Report Text: KLVJ 210953Z AUTO 06009KT 10SM OVC023 11/08 A3014 RMK AO2 SLP206 T01060083
Loading
Personal Weather Stations






























Interactive Weather Map New forecast layout! Learn more

10-Day Weather Forecast

Advertisements
Track Severe Weather on mobile